sensor_id;sensor_type;location;lat;lon;timestamp;pressure;altitude;pressure_sealevel;temperature;humidity
2673;BME280;1346;51.558;6.996;2022-11-20T00:01:32;100823.59;;;-2.53;100.00
2673;BME280;1346;51.558;6.996;2022-11-20T00:04:00;100818.34;;;-2.53;100.00
2673;BME280;1346;51.558;6.996;2022-11-20T00:06:28;100821.09;;;-2.56;100.00
2673;BME280;1346;51.558;6.996;2022-11-20T00:08:58;100822.00;;;-2.57;100.00
2673;BME280;1346;51.558;6.996;2022-11-20T00:11:29;100818.59;;;-2.59;100.00
2673;BME280;1346;51.558;6.996;2022-11-20T00:13:58;100815.19;;;-2.61;100.00
2673;BME280;1346;51.558;6.996;2022-11-20T00:16:28;100803.88;;;-2.62;100.00
2673;BME280;1346;51.558;6.996;2022-11-20T00:18:56;100807.38;;;-2.63;100.00
2673;BME280;1346;51.558;6.996;2022-11-20T00:21:25;100815.19;;;-2.61;100.00
2673;BME280;1346;51.558;6.996;2022-11-20T00:23:55;100810.00;;;-2.63;100.00
2673;BME280;1346;51.558;6.996;2022-11-20T00:26:24;100804.84;;;-2.64;100.00
2673;BME280;1346;51.558;6.996;2022-11-20T00:28:54;100806.66;;;-2.66;100.00
2673;BME280;1346;51.558;6.996;2022-11-20T00:31:22;100809.38;;;-2.68;100.00
2673;BME280;1346;51.558;6.996;2022-11-20T00:33:50;100807.69;;;-2.69;100.00
2673;BME280;1346;51.558;6.996;2022-11-20T00:36:19;100808.56;;;-2.70;100.00
2673;BME280;1346;51.558;6.996;2022-11-20T00:38:46;100806.97;;;-2.72;100.00
2673;BME280;1346;51.558;6.996;2022-11-20T00:41:16;100810.44;;;-2.72;100.00
2673;BME280;1346;51.558;6.996;2022-11-20T00:43:43;100805.22;;;-2.73;100.00
2673;BME280;1346;51.558;6.996;2022-11-20T00:46:13;100810.56;;;-2.75;100.00
2673;BME280;1346;51.558;6.996;2022-11-20T00:48:40;100811.47;;;-2.76;100.00
2673;BME280;1346;51.558;6.996;2022-11-20T00:51:07;100802.81;;;-2.78;100.00
2673;BME280;1346;51.558;6.996;2022-11-20T00:53:34;100796.84;;;-2.81;100.00
2673;BME280;1346;51.558;6.996;2022-11-20T00:56:03;100791.69;;;-2.83;100.00
2673;BME280;1346;51.558;6.996;2022-11-20T00:58:33;100797.94;;;-2.85;100.00
2673;BME280;1346;51.558;6.996;2022-11-20T01:01:01;100805.84;;;-2.87;100.00
2673;BME280;1346;51.558;6.996;2022-11-20T01:03:31;100801.53;;;-2.88;100.00
2673;BME280;1346;51.558;6.996;2022-11-20T01:06:00;100810.31;;;-2.89;100.00
2673;BME280;1346;51.558;6.996;2022-11-20T01:08:30;100808.59;;;-2.90;100.00
2673;BME280;1346;51.558;6.996;2022-11-20T01:11:00;100800.72;;;-2.90;100.00
2673;BME280;1346;51.558;6.996;2022-11-20T01:13:28;100797.28;;;-2.90;100.00
2673;BME280;1346;51.558;6.996;2022-11-20T01:16:08;100795.56;;;-2.91;100.00
2673;BME280;1346;51.558;6.996;2022-11-20T01:18:36;100793.88;;;-2.92;100.00
2673;BME280;1346;51.558;6.996;2022-11-20T01:21:06;100796.56;;;-2.94;100.00
2673;BME280;1346;51.558;6.996;2022-11-20T01:23:35;100788.75;;;-2.95;100.00
2673;BME280;1346;51.558;6.996;2022-11-20T01:26:05;100786.25;;;-2.98;100.00
2673;BME280;1346;51.558;6.996;2022-11-20T01:28:32;100784.63;;;-3.01;100.00
2673;BME280;1346;51.558;6.996;2022-11-20T01:31:00;100779.47;;;-3.02;100.00
2673;BME280;1346;51.558;6.996;2022-11-20T01:33:28;100773.44;;;-3.04;100.00
2673;BME280;1346;51.558;6.996;2022-11-20T01:36:03;100767.41;;;-3.06;100.00
2673;BME280;1346;51.558;6.996;2022-11-20T01:38:31;100761.38;;;-3.08;100.00
2673;BME280;1346;51.558;6.996;2022-11-20T01:40:58;100764.06;;;-3.10;100.00
2673;BME280;1346;51.558;6.996;2022-11-20T01:43:25;100763.19;;;-3.10;100.00
2673;BME280;1346;51.558;6.996;2022-11-20T01:46:14;100769.38;;;-3.11;100.00
2673;BME280;1346;51.558;6.996;2022-11-20T01:48:49;100774.69;;;-3.13;100.00
2673;BME280;1346;51.558;6.996;2022-11-20T01:51:25;100781.66;;;-3.13;100.00
2673;BME280;1346;51.558;6.996;2022-11-20T01:53:58;100781.75;;;-3.15;100.00
2673;BME280;1346;51.558;6.996;2022-11-20T01:56:27;100788.75;;;-3.15;100.00
2673;BME280;1346;51.558;6.996;2022-11-20T01:58:58;100783.50;;;-3.15;100.00
2673;BME280;1346;51.558;6.996;2022-11-20T02:01:26;100786.13;;;-3.15;100.00
2673;BME280;1346;51.558;6.996;2022-11-20T02:03:54;100780.88;;;-3.15;100.00
2673;BME280;1346;51.558;6.996;2022-11-20T02:06:25;100777.50;;;-3.17;100.00
2673;BME280;1346;51.558;6.996;2022-11-20T02:08:54;100766.22;;;-3.19;100.00
2673;BME280;1346;51.558;6.996;2022-11-20T02:11:22;100765.38;;;-3.20;100.00
2673;BME280;1346;51.558;6.996;2022-11-20T02:13:49;100755.03;;;-3.23;100.00
2673;BME280;1346;51.558;6.996;2022-11-20T02:16:20;100751.69;;;-3.26;100.00
2673;BME280;1346;51.558;6.996;2022-11-20T02:18:48;100747.34;;;-3.27;100.00
2673;BME280;1346;51.558;6.996;2022-11-20T02:21:33;100755.28;;;-3.29;100.00
2673;BME280;1346;51.558;6.996;2022-11-20T02:24:08;100758.81;;;-3.30;100.00
2673;BME280;1346;51.558;6.996;2022-11-20T02:26:43;100748.28;;;-3.28;100.00
2673;BME280;1346;51.558;6.996;2022-11-20T02:29:11;100748.13;;;-3.25;100.00
2673;BME280;1346;51.558;6.996;2022-11-20T02:31:41;100740.34;;;-3.27;100.00
2673;BME280;1346;51.558;6.996;2022-11-20T02:34:09;100752.59;;;-3.27;100.00
2673;BME280;1346;51.558;6.996;2022-11-20T02:36:37;100747.34;;;-3.27;100.00
2673;BME280;1346;51.558;6.996;2022-11-20T02:39:07;100738.50;;;-3.25;100.00
2673;BME280;1346;51.558;6.996;2022-11-20T02:41:36;100734.00;;;-3.21;100.00
2673;BME280;1346;51.558;6.996;2022-11-20T02:44:04;100734.72;;;-3.18;100.00
2673;BME280;1346;51.558;6.996;2022-11-20T02:46:32;100734.66;;;-3.16;100.00
2673;BME280;1346;51.558;6.996;2022-11-20T02:49:01;100732.03;;;-3.16;100.00
2673;BME280;1346;51.558;6.996;2022-11-20T02:51:28;100733.72;;;-3.15;100.00
2673;BME280;1346;51.558;6.996;2022-11-20T02:53:55;100739.69;;;-3.12;100.00
2673;BME280;1346;51.558;6.996;2022-11-20T02:56:23;100739.59;;;-3.10;100.00
2673;BME280;1346;51.558;6.996;2022-11-20T02:58:51;100737.84;;;-3.10;100.00
2673;BME280;1346;51.558;6.996;2022-11-20T03:01:18;100743.03;;;-3.08;100.00
2673;BME280;1346;51.558;6.996;2022-11-20T03:03:45;100737.63;;;-3.05;100.00
2673;BME280;1346;51.558;6.996;2022-11-20T03:06:14;100739.28;;;-3.03;100.00
2673;BME280;1346;51.558;6.996;2022-11-20T03:08:41;100732.16;;;-2.99;100.00
2673;BME280;1346;51.558;6.996;2022-11-20T03:11:08;100734.41;;;-2.92;100.00
2673;BME280;1346;51.558;6.996;2022-11-20T03:13:36;100724.53;;;-2.85;100.00
2673;BME280;1346;51.558;6.996;2022-11-20T03:16:09;100722.41;;;-2.77;100.00
2673;BME280;1346;51.558;6.996;2022-11-20T03:18:37;100733.53;;;-2.72;100.00
2673;BME280;1346;51.558;6.996;2022-11-20T03:21:05;100733.25;;;-2.66;100.00
2673;BME280;1346;51.558;6.996;2022-11-20T03:23:32;100732.19;;;-2.62;100.00
2673;BME280;1346;51.558;6.996;2022-11-20T03:26:11;100730.16;;;-2.56;100.00
2673;BME280;1346;51.558;6.996;2022-11-20T03:28:40;100733.34;;;-2.49;100.00
2673;BME280;1346;51.558;6.996;2022-11-20T03:31:09;100725.28;;;-2.44;100.00
2673;BME280;1346;51.558;6.996;2022-11-20T03:33:36;100719.81;;;-2.40;100.00
2673;BME280;1346;51.558;6.996;2022-11-20T03:36:06;100730.00;;;-2.34;100.00
2673;BME280;1346;51.558;6.996;2022-11-20T03:38:33;100723.69;;;-2.30;100.00
2673;BME280;1346;51.558;6.996;2022-11-20T03:41:02;100724.34;;;-2.25;100.00
2673;BME280;1346;51.558;6.996;2022-11-20T03:43:29;100722.34;;;-2.20;100.00
2673;BME280;1346;51.558;6.996;2022-11-20T03:45:58;100714.38;;;-2.18;100.00
2673;BME280;1346;51.558;6.996;2022-11-20T03:48:25;100723.03;;;-2.16;100.00
2673;BME280;1346;51.558;6.996;2022-11-20T03:50:54;100708.09;;;-2.14;100.00
2673;BME280;1346;51.558;6.996;2022-11-20T03:53:32;100706.16;;;-2.11;100.00
2673;BME280;1346;51.558;6.996;2022-11-20T03:55:59;100700.84;;;-2.09;100.00
2673;BME280;1346;51.558;6.996;2022-11-20T03:58:26;100708.63;;;-2.08;100.00
2673;BME280;1346;51.558;6.996;2022-11-20T04:00:53;100703.38;;;-2.08;100.00
2673;BME280;1346;51.558;6.996;2022-11-20T04:03:21;100695.50;;;-2.08;100.00
2673;BME280;1346;51.558;6.996;2022-11-20T04:05:48;100695.50;;;-2.08;100.00
2673;BME280;1346;51.558;6.996;2022-11-20T04:08:15;100702.53;;;-2.08;100.00
2673;BME280;1346;51.558;6.996;2022-11-20T04:10:41;100691.19;;;-2.09;100.00
2673;BME280;1346;51.558;6.996;2022-11-20T04:13:08;100692.97;;;-2.09;100.00
2673;BME280;1346;51.558;6.996;2022-11-20T04:15:35;100690.25;;;-2.08;100.00
2673;BME280;1346;51.558;6.996;2022-11-20T04:18:02;100691.94;;;-2.07;100.00
2673;BME280;1346;51.558;6.996;2022-11-20T04:20:30;100699.78;;;-2.05;100.00
2673;BME280;1346;51.558;6.996;2022-11-20T04:22:57;100700.44;;;-2.02;100.00
2673;BME280;1346;51.558;6.996;2022-11-20T04:25:24;100695.19;;;-2.02;100.00
2673;BME280;1346;51.558;6.996;2022-11-20T04:27:51;100702.16;;;-2.01;100.00
2673;BME280;1346;51.558;6.996;2022-11-20T04:30:18;100703.03;;;-2.00;100.00
2673;BME280;1346;51.558;6.996;2022-11-20T04:32:45;100705.66;;;-2.00;100.00
2673;BME280;1346;51.558;6.996;2022-11-20T04:35:11;100707.41;;;-2.01;100.00
2673;BME280;1346;51.558;6.996;2022-11-20T04:37:40;100704.72;;;-1.99;100.00
2673;BME280;1346;51.558;6.996;2022-11-20T04:40:07;100706.47;;;-2.00;100.00
2673;BME280;1346;51.558;6.996;2022-11-20T04:42:34;100702.16;;;-2.01;100.00
2673;BME280;1346;51.558;6.996;2022-11-20T04:45:01;100700.31;;;-1.99;100.00
2673;BME280;1346;51.558;6.996;2022-11-20T04:47:28;100696.91;;;-2.01;100.00
2673;BME280;1346;51.558;6.996;2022-11-20T04:49:55;100699.78;;;-2.05;100.00
2673;BME280;1346;51.558;6.996;2022-11-20T04:52:22;100701.63;;;-2.07;100.00
2673;BME280;1346;51.558;6.996;2022-11-20T04:54:50;100692.25;;;-2.13;100.00
2673;BME280;1346;51.558;6.996;2022-11-20T04:57:19;100692.56;;;-2.19;100.00
2673;BME280;1346;51.558;6.996;2022-11-20T04:59:46;100690.22;;;-2.25;100.00
2673;BME280;1346;51.558;6.996;2022-11-20T05:02:13;100689.59;;;-2.30;100.00
2673;BME280;1346;51.558;6.996;2022-11-20T05:04:40;100689.75;;;-2.33;100.00
2673;BME280;1346;51.558;6.996;2022-11-20T05:07:06;100692.44;;;-2.34;100.00
2673;BME280;1346;51.558;6.996;2022-11-20T05:09:33;100695.25;;;-2.39;100.00
2673;BME280;1346;51.558;6.996;2022-11-20T05:12:02;100704.13;;;-2.41;100.00
2673;BME280;1346;51.558;6.996;2022-11-20T05:14:29;100701.59;;;-2.43;100.00
2673;BME280;1346;51.558;6.996;2022-11-20T05:16:55;100703.28;;;-2.42;100.00
2673;BME280;1346;51.558;6.996;2022-11-20T05:19:22;100704.06;;;-2.40;100.00
2673;BME280;1346;51.558;6.996;2022-11-20T05:21:49;100698.81;;;-2.40;100.00
2673;BME280;1346;51.558;6.996;2022-11-20T05:24:16;100695.25;;;-2.39;100.00
2673;BME280;1346;51.558;6.996;2022-11-20T05:26:43;100697.97;;;-2.40;100.00
2673;BME280;1346;51.558;6.996;2022-11-20T05:29:12;100694.44;;;-2.39;100.00
2673;BME280;1346;51.558;6.996;2022-11-20T05:31:40;100698.66;;;-2.37;100.00
2673;BME280;1346;51.558;6.996;2022-11-20T05:34:07;100698.47;;;-2.32;100.00
2673;BME280;1346;51.558;6.996;2022-11-20T05:36:34;100686.19;;;-2.32;100.00
2673;BME280;1346;51.558;6.996;2022-11-20T05:39:01;100693.16;;;-2.31;100.00
2673;BME280;1346;51.558;6.996;2022-11-20T05:41:28;100698.16;;;-2.26;100.00
2673;BME280;1346;51.558;6.996;2022-11-20T05:43:56;100691.84;;;-2.22;100.00
2673;BME280;1346;51.558;6.996;2022-11-20T05:46:25;100691.78;;;-2.21;100.00
2673;BME280;1346;51.558;6.996;2022-11-20T05:48:52;100691.63;;;-2.18;100.00
2673;BME280;1346;51.558;6.996;2022-11-20T05:51:20;100689.72;;;-2.14;100.00
2673;BME280;1346;51.558;6.996;2022-11-20T05:53:47;100693.03;;;-2.11;100.00
2673;BME280;1346;51.558;6.996;2022-11-20T05:56:16;100699.91;;;-2.08;100.00
2673;BME280;1346;51.558;6.996;2022-11-20T05:58:44;100697.19;;;-2.07;100.00
2673;BME280;1346;51.558;6.996;2022-11-20T06:01:16;100692.88;;;-2.08;100.00
2673;BME280;1346;51.558;6.996;2022-11-20T06:03:46;100685.88;;;-2.07;100.00
2673;BME280;1346;51.558;6.996;2022-11-20T06:06:14;100687.47;;;-2.05;100.00
2673;BME280;1346;51.558;6.996;2022-11-20T06:08:42;100683.94;;;-2.04;100.00
2673;BME280;1346;51.558;6.996;2022-11-20T06:11:11;100688.34;;;-2.04;100.00
2673;BME280;1346;51.558;6.996;2022-11-20T06:13:39;100682.16;;;-2.03;100.00
2673;BME280;1346;51.558;6.996;2022-11-20T06:16:07;100684.03;;;-2.05;100.00
2673;BME280;1346;51.558;6.996;2022-11-20T06:18:34;100679.75;;;-2.08;100.00
2673;BME280;1346;51.558;6.996;2022-11-20T06:21:05;100683.38;;;-2.10;100.00
2673;BME280;1346;51.558;6.996;2022-11-20T06:23:34;100683.59;;;-2.15;100.00
2673;BME280;1346;51.558;6.996;2022-11-20T06:26:03;100682.06;;;-2.19;100.00
2673;BME280;1346;51.558;6.996;2022-11-20T06:28:30;100684.81;;;-2.22;100.00
2673;BME280;1346;51.558;6.996;2022-11-20T06:30:57;100692.84;;;-2.25;100.00
2673;BME280;1346;51.558;6.996;2022-11-20T06:33:24;100694.84;;;-2.30;100.00
2673;BME280;1346;51.558;6.996;2022-11-20T06:35:51;100695.91;;;-2.34;100.00
2673;BME280;1346;51.558;6.996;2022-11-20T06:38:19;100702.16;;;-2.36;100.00
2673;BME280;1346;51.558;6.996;2022-11-20T06:44:26;100697.25;;;-2.44;100.00
2673;BME280;1346;51.558;6.996;2022-11-20T06:46:52;100698.34;;;-2.48;100.00
2673;BME280;1346;51.558;6.996;2022-11-20T06:49:19;100694.06;;;-2.51;100.00
2673;BME280;1346;51.558;6.996;2022-11-20T06:51:46;100709.88;;;-2.52;100.00
2673;BME280;1346;51.558;6.996;2022-11-20T06:54:14;100708.25;;;-2.55;100.00
2673;BME280;1346;51.558;6.996;2022-11-20T06:56:41;100695.28;;;-2.58;100.00
2673;BME280;1346;51.558;6.996;2022-11-20T06:59:08;100692.72;;;-2.59;100.00
2673;BME280;1346;51.558;6.996;2022-11-20T07:01:35;100701.53;;;-2.60;100.00
2673;BME280;1346;51.558;6.996;2022-11-20T07:04:02;100697.25;;;-2.63;100.00
2673;BME280;1346;51.558;6.996;2022-11-20T07:06:29;100700.88;;;-2.65;100.00
2673;BME280;1346;51.558;6.996;2022-11-20T07:08:56;100694.94;;;-2.69;100.00
2673;BME280;1346;51.558;6.996;2022-11-20T07:11:25;100697.63;;;-2.70;100.00
2673;BME280;1346;51.558;6.996;2022-11-20T07:13:51;100708.19;;;-2.72;100.00
2673;BME280;1346;51.558;6.996;2022-11-20T07:16:18;100710.81;;;-2.72;100.00
2673;BME280;1346;51.558;6.996;2022-11-20T07:18:45;100710.72;;;-2.70;100.00
2673;BME280;1346;51.558;6.996;2022-11-20T07:21:12;100724.56;;;-2.67;100.00
2673;BME280;1346;51.558;6.996;2022-11-20T07:23:39;100714.00;;;-2.65;100.00
2673;BME280;1346;51.558;6.996;2022-11-20T07:26:06;100718.38;;;-2.66;100.00
2673;BME280;1346;51.558;6.996;2022-11-20T07:28:36;100720.94;;;-2.64;100.00
2673;BME280;1346;51.558;6.996;2022-11-20T07:31:03;100714.72;;;-2.62;100.00
2673;BME280;1346;51.558;6.996;2022-11-20T07:33:32;100717.19;;;-2.59;100.00
2673;BME280;1346;51.558;6.996;2022-11-20T07:35:59;100714.47;;;-2.57;100.00
2673;BME280;1346;51.558;6.996;2022-11-20T07:38:27;100710.94;;;-2.56;100.00
2673;BME280;1346;51.558;6.996;2022-11-20T07:40:54;100703.06;;;-2.56;100.00
2673;BME280;1346;51.558;6.996;2022-11-20T07:43:23;100710.88;;;-2.55;100.00
2673;BME280;1346;51.558;6.996;2022-11-20T07:45:52;100716.97;;;-2.54;100.00
2673;BME280;1346;51.558;6.996;2022-11-20T07:48:21;100718.59;;;-2.52;100.00
2673;BME280;1346;51.558;6.996;2022-11-20T07:50:48;100709.72;;;-2.49;100.00
2673;BME280;1346;51.558;6.996;2022-11-20T07:53:14;100714.00;;;-2.47;100.00
2673;BME280;1346;51.558;6.996;2022-11-20T07:55:46;100715.53;;;-2.42;100.00
2673;BME280;1346;51.558;6.996;2022-11-20T07:58:13;100719.81;;;-2.40;100.00
2673;BME280;1346;51.558;6.996;2022-11-20T08:00:40;100711.63;;;-2.34;100.00
2673;BME280;1346;51.558;6.996;2022-11-20T08:03:08;100704.47;;;-2.30;100.00
2673;BME280;1346;51.558;6.996;2022-11-20T08:05:35;100703.41;;;-2.26;100.00
2673;BME280;1346;51.558;6.996;2022-11-20T08:08:03;100692.69;;;-2.22;100.00
2673;BME280;1346;51.558;6.996;2022-11-20T08:10:30;100699.34;;;-2.15;100.00
2673;BME280;1346;51.558;6.996;2022-11-20T08:12:57;100698.28;;;-2.11;100.00
2673;BME280;1346;51.558;6.996;2022-11-20T08:15:47;100703.16;;;-2.03;100.00
2673;BME280;1346;51.558;6.996;2022-11-20T08:18:17;100701.06;;;-1.97;100.00
2673;BME280;1346;51.558;6.996;2022-11-20T08:20:44;100693.84;;;-1.92;100.00
2673;BME280;1346;51.558;6.996;2022-11-20T08:23:11;100693.53;;;-1.86;100.00
2673;BME280;1346;51.558;6.996;2022-11-20T08:25:38;100694.88;;;-1.77;100.00
2673;BME280;1346;51.558;6.996;2022-11-20T08:28:07;100684.81;;;-1.69;100.00
2673;BME280;1346;51.558;6.996;2022-11-20T08:30:36;100684.38;;;-1.60;100.00
2673;BME280;1346;51.558;6.996;2022-11-20T08:33:05;100688.31;;;-1.52;100.00
2673;BME280;1346;51.558;6.996;2022-11-20T08:35:34;100687.00;;;-1.43;100.00
2673;BME280;1346;51.558;6.996;2022-11-20T08:38:02;100691.09;;;-1.38;100.00
2673;BME280;1346;51.558;6.996;2022-11-20T08:40:29;100699.34;;;-1.28;100.00
2673;BME280;1346;51.558;6.996;2022-11-20T08:42:56;100694.47;;;-1.18;100.00
2673;BME280;1346;51.558;6.996;2022-11-20T08:45:23;100693.81;;;-1.06;100.00
2673;BME280;1346;51.558;6.996;2022-11-20T08:47:50;100687.91;;;-0.94;100.00
2673;BME280;1346;51.558;6.996;2022-11-20T08:50:17;100688.22;;;-0.83;100.00
2673;BME280;1346;51.558;6.996;2022-11-20T08:52:45;100691.38;;;-0.77;100.00
2673;BME280;1346;51.558;6.996;2022-11-20T08:55:12;100692.56;;;-0.67;100.00
2673;BME280;1346;51.558;6.996;2022-11-20T08:57:39;100700.72;;;-0.56;100.00
2673;BME280;1346;51.558;6.996;2022-11-20T09:00:09;100701.00;;;-0.45;100.00
2673;BME280;1346;51.558;6.996;2022-11-20T09:02:36;100703.97;;;-0.35;100.00
2673;BME280;1346;51.558;6.996;2022-11-20T09:05:04;100698.19;;;-0.26;100.00
2673;BME280;1346;51.558;6.996;2022-11-20T09:07:31;100695.06;;;-0.17;100.00
2673;BME280;1346;51.558;6.996;2022-11-20T09:10:00;100691.91;;;-0.08;100.00
2673;BME280;1346;51.558;6.996;2022-11-20T09:12:27;100697.41;;;0.03;100.00
2673;BME280;1346;51.558;6.996;2022-11-20T09:14:53;100692.19;;;0.17;100.00
2673;BME280;1346;51.558;6.996;2022-11-20T09:17:20;100682.84;;;0.27;100.00
2673;BME280;1346;51.558;6.996;2022-11-20T09:19:47;100692.75;;;0.38;100.00
2673;BME280;1346;51.558;6.996;2022-11-20T09:22:14;100688.72;;;0.46;100.00
2673;BME280;1346;51.558;6.996;2022-11-20T09:24:41;100686.66;;;0.51;100.00
2673;BME280;1346;51.558;6.996;2022-11-20T09:27:09;100674.72;;;0.60;100.00
2673;BME280;1346;51.558;6.996;2022-11-20T09:29:36;100677.94;;;0.65;100.00
2673;BME280;1346;51.558;6.996;2022-11-20T09:32:04;100670.44;;;0.73;100.00
2673;BME280;1346;51.558;6.996;2022-11-20T09:34:31;100666.22;;;0.84;100.00
2673;BME280;1346;51.558;6.996;2022-11-20T09:36:58;100669.03;;;0.95;100.00
2673;BME280;1346;51.558;6.996;2022-11-20T09:39:25;100673.66;;;1.06;100.00
2673;BME280;1346;51.558;6.996;2022-11-20T09:42:27;100666.53;;;1.22;100.00
2673;BME280;1346;51.558;6.996;2022-11-20T09:45:22;100663.59;;;1.41;100.00
2673;BME280;1346;51.558;6.996;2022-11-20T09:48:26;100665.06;;;1.59;100.00
2673;BME280;1346;51.558;6.996;2022-11-20T09:51:00;100658.25;;;1.69;100.00
2673;BME280;1346;51.558;6.996;2022-11-20T09:53:41;100658.41;;;1.80;100.00
2673;BME280;1346;51.558;6.996;2022-11-20T09:56:11;100650.50;;;1.80;100.00
2673;BME280;1346;51.558;6.996;2022-11-20T09:58:42;100650.00;;;1.73;100.00
2673;BME280;1346;51.558;6.996;2022-11-20T10:01:14;100650.22;;;1.70;100.00
2673;BME280;1346;51.558;6.996;2022-11-20T10:03:51;100650.00;;;1.73;100.00
2673;BME280;1346;51.558;6.996;2022-11-20T10:06:28;100646.69;;;1.84;100.00
2673;BME280;1346;51.558;6.996;2022-11-20T10:09:07;100641.47;;;1.96;100.00
2673;BME280;1346;51.558;6.996;2022-11-20T10:11:51;100644.66;;;2.14;100.00
2673;BME280;1346;51.558;6.996;2022-11-20T10:14:34;100643.03;;;2.25;100.00
2673;BME280;1346;51.558;6.996;2022-11-20T10:17:16;100633.22;;;2.40;100.00
2673;BME280;1346;51.558;6.996;2022-11-20T10:20:02;100632.06;;;2.57;100.00
2673;BME280;1346;51.558;6.996;2022-11-20T10:22:48;100629.56;;;2.68;100.00
2673;BME280;1346;51.558;6.996;2022-11-20T10:25:22;100627.66;;;2.82;100.00
2673;BME280;1346;51.558;6.996;2022-11-20T10:28:14;100627.09;;;3.02;100.00
2673;BME280;1346;51.558;6.996;2022-11-20T10:30:46;100630.38;;;3.31;100.00
2673;BME280;1346;51.558;6.996;2022-11-20T10:33:18;100612.81;;;3.53;100.00
2673;BME280;1346;51.558;6.996;2022-11-20T10:35:52;100610.56;;;3.60;100.00
2673;BME280;1346;51.558;6.996;2022-11-20T10:38:30;100614.06;;;3.60;100.00
2673;BME280;1346;51.558;6.996;2022-11-20T10:41:02;100607.81;;;3.61;100.00
2673;BME280;1346;51.558;6.996;2022-11-20T10:43:45;100597.63;;;3.68;100.00
2673;BME280;1346;51.558;6.996;2022-11-20T10:46:18;100599.09;;;3.72;100.00
2673;BME280;1346;51.558;6.996;2022-11-20T10:48:48;100605.88;;;3.76;100.00
2673;BME280;1346;51.558;6.996;2022-11-20T10:51:35;100607.44;;;3.79;100.00
2673;BME280;1346;51.558;6.996;2022-11-20T10:54:20;100600.22;;;3.81;100.00
2673;BME280;1346;51.558;6.996;2022-11-20T10:56:51;100597.13;;;3.87;100.00
2673;BME280;1346;51.558;6.996;2022-11-20T10:59:41;100598.38;;;3.94;100.00
2673;BME280;1346;51.558;6.996;2022-11-20T11:02:22;100597.78;;;4.01;100.00
2673;BME280;1346;51.558;6.996;2022-11-20T11:04:51;100592.63;;;4.11;100.00
2673;BME280;1346;51.558;6.996;2022-11-20T11:07:22;100585.91;;;4.18;100.00
2673;BME280;1346;51.558;6.996;2022-11-20T11:09:53;100582.81;;;4.24;100.00
2673;BME280;1346;51.558;6.996;2022-11-20T11:12:24;100583.56;;;4.26;100.00
2673;BME280;1346;51.558;6.996;2022-11-20T11:14:53;100581.00;;;4.24;100.00
2673;BME280;1346;51.558;6.996;2022-11-20T11:17:26;100570.19;;;4.27;100.00
2673;BME280;1346;51.558;6.996;2022-11-20T11:19:59;100570.78;;;4.31;100.00
2673;BME280;1346;51.558;6.996;2022-11-20T11:22:29;100561.63;;;4.35;100.00
2673;BME280;1346;51.558;6.996;2022-11-20T11:24:56;100560.56;;;4.37;100.00
2673;BME280;1346;51.558;6.996;2022-11-20T11:27:23;100558.63;;;4.39;100.00
2673;BME280;1346;51.558;6.996;2022-11-20T11:30:11;100556.34;;;4.46;100.00
2673;BME280;1346;51.558;6.996;2022-11-20T11:32:41;100550.69;;;4.50;100.00
2673;BME280;1346;51.558;6.996;2022-11-20T11:35:24;100544.31;;;4.64;100.00
2673;BME280;1346;51.558;6.996;2022-11-20T11:37:54;100537.31;;;4.74;100.00
2673;BME280;1346;51.558;6.996;2022-11-20T11:40:30;100530.06;;;4.87;100.00
2673;BME280;1346;51.558;6.996;2022-11-20T11:43:00;100539.13;;;4.95;100.00
2673;BME280;1346;51.558;6.996;2022-11-20T11:45:28;100529.09;;;4.99;100.00
2673;BME280;1346;51.558;6.996;2022-11-20T11:47:57;100518.50;;;4.99;100.00
2673;BME280;1346;51.558;6.996;2022-11-20T11:50:27;100523.31;;;4.94;100.00
2673;BME280;1346;51.558;6.996;2022-11-20T11:53:03;100521.16;;;4.88;100.00
2673;BME280;1346;51.558;6.996;2022-11-20T11:55:39;100518.97;;;4.82;100.00
2673;BME280;1346;51.558;6.996;2022-11-20T11:58:20;100510.06;;;4.72;100.00
2673;BME280;1346;51.558;6.996;2022-11-20T12:00:58;100504.75;;;4.61;100.00
2673;BME280;1346;51.558;6.996;2022-11-20T12:03:35;100499.91;;;4.55;100.00
2673;BME280;1346;51.558;6.996;2022-11-20T12:06:10;100492.94;;;4.54;100.00
2673;BME280;1346;51.558;6.996;2022-11-20T12:08:44;100490.41;;;4.52;100.00
2673;BME280;1346;51.558;6.996;2022-11-20T12:11:30;100478.69;;;4.55;100.00
2673;BME280;1346;51.558;6.996;2022-11-20T12:14:04;100476.78;;;4.57;100.00
2673;BME280;1346;51.558;6.996;2022-11-20T12:16:38;100476.31;;;4.63;100.00
2673;BME280;1346;51.558;6.996;2022-11-20T12:19:12;100469.44;;;4.71;100.00
2673;BME280;1346;51.558;6.996;2022-11-20T12:21:54;100471.59;;;4.77;100.00
2673;BME280;1346;51.558;6.996;2022-11-20T12:24:44;100469.66;;;4.79;100.00
2673;BME280;1346;51.558;6.996;2022-11-20T12:27:49;100462.16;;;4.73;100.00
2673;BME280;1346;51.558;6.996;2022-11-20T12:30:20;100462.19;;;4.62;100.00
2673;BME280;1346;51.558;6.996;2022-11-20T12:33:12;100457.97;;;4.49;100.00
2673;BME280;1346;51.558;6.996;2022-11-20T12:36:01;100459.66;;;4.39;100.00
2673;BME280;1346;51.558;6.996;2022-11-20T12:38:50;100460.34;;;4.30;100.00
2673;BME280;1346;51.558;6.996;2022-11-20T12:41:40;100456.50;;;4.23;100.00
2673;BME280;1346;51.558;6.996;2022-11-20T12:44:48;100457.94;;;4.16;100.00
2673;BME280;1346;51.558;6.996;2022-11-20T12:47:58;100456.50;;;4.12;100.00
2673;BME280;1346;51.558;6.996;2022-11-20T12:50:37;100449.72;;;4.08;100.00
2673;BME280;1346;51.558;6.996;2022-11-20T12:53:22;100441.16;;;4.04;100.00
2673;BME280;1346;51.558;6.996;2022-11-20T12:56:01;100434.19;;;4.03;100.00
2673;BME280;1346;51.558;6.996;2022-11-20T12:58:38;100429.84;;;4.02;100.00
2673;BME280;1346;51.558;6.996;2022-11-20T13:01:25;100420.19;;;4.01;100.00
2673;BME280;1346;51.558;6.996;2022-11-20T13:04:24;100405.97;;;4.02;100.00
2673;BME280;1346;51.558;6.996;2022-11-20T13:07:02;100416.56;;;4.02;100.00
2673;BME280;1346;51.558;6.996;2022-11-20T13:09:34;100399.59;;;4.05;100.00
2673;BME280;1346;51.558;6.996;2022-11-20T13:12:06;100396.72;;;4.08;100.00
2673;BME280;1346;51.558;6.996;2022-11-20T13:14:40;100389.38;;;4.11;100.00
2673;BME280;1346;51.558;6.996;2022-11-20T13:17:16;100384.66;;;4.15;100.00
2673;BME280;1346;51.558;6.996;2022-11-20T13:19:54;100378.19;;;4.19;100.00
2673;BME280;1346;51.558;6.996;2022-11-20T13:22:25;100378.06;;;4.20;100.00
2673;BME280;1346;51.558;6.996;2022-11-20T13:24:53;100383.22;;;4.22;100.00
2673;BME280;1346;51.558;6.996;2022-11-20T13:27:22;100376.13;;;4.22;100.00